createdAt,value
2022-11-29T00:02:00.505Z,3.70
2022-11-29T00:04:29.761Z,4.28
2022-11-29T00:06:58.649Z,3.92
2022-11-29T00:09:27.850Z,2.72
2022-11-29T00:12:14.606Z,3.47
2022-11-29T00:14:44.016Z,4.72
2022-11-29T00:17:14.521Z,3.20
2022-11-29T00:19:45.158Z,2.50
2022-11-29T00:22:14.034Z,2.92
2022-11-29T00:24:43.254Z,3.70
2022-11-29T00:27:12.442Z,3.08
2022-11-29T00:29:41.345Z,3.67
2022-11-29T00:32:10.243Z,2.90
2022-11-29T00:34:40.587Z,3.72
2022-11-29T00:37:09.559Z,4.10
2022-11-29T00:39:39.345Z,3.40
2022-11-29T00:42:08.403Z,3.70
2022-11-29T00:44:37.267Z,3.53
2022-11-29T00:47:06.222Z,4.00
2022-11-29T00:49:35.109Z,3.35
2022-11-29T00:52:05.786Z,3.55
2022-11-29T00:54:34.747Z,4.07
2022-11-29T00:57:03.630Z,4.28
2022-11-29T00:59:32.540Z,4.13
2022-11-29T01:02:02.079Z,3.53
2022-11-29T01:04:31.394Z,3.65
2022-11-29T01:07:00.221Z,4.05
2022-11-29T01:09:30.501Z,4.30
2022-11-29T01:11:59.380Z,4.68
2022-11-29T01:14:28.257Z,4.28
2022-11-29T01:16:57.247Z,5.32
2022-11-29T01:19:26.105Z,5.00
2022-11-29T01:21:55.020Z,4.65
2022-11-29T01:24:24.057Z,5.55
2022-11-29T01:26:54.355Z,4.88
2022-11-29T01:29:23.297Z,4.50
2022-11-29T01:31:52.186Z,5.60
2022-11-29T01:34:21.688Z,4.95
2022-11-29T01:36:50.960Z,5.50
2022-11-29T01:39:19.883Z,8.07
2022-11-29T01:41:48.721Z,6.80
2022-11-29T01:44:54.669Z,4.90
2022-11-29T01:47:24.979Z,4.28
2022-11-29T01:49:53.893Z,3.08
2022-11-29T01:52:26.987Z,2.42
2022-11-29T01:54:59.495Z,3.42
2022-11-29T01:57:29.261Z,3.42
2022-11-29T02:00:03.536Z,3.22
2022-11-29T02:02:45.608Z,3.35
2022-11-29T02:05:18.039Z,3.35
2022-11-29T02:07:50.938Z,3.08
2022-11-29T02:10:20.841Z,3.38
2022-11-29T02:12:57.806Z,3.25
2022-11-29T02:15:42.960Z,4.38
2022-11-29T02:18:16.674Z,4.43
2022-11-29T02:21:19.855Z,3.60
2022-11-29T02:24:29.892Z,3.58
2022-11-29T02:27:18.071Z,3.42
2022-11-29T02:30:16.309Z,4.32
2022-11-29T02:33:20.215Z,4.40
2022-11-29T02:36:17.468Z,3.22
2022-11-29T02:39:16.391Z,3.75
2022-11-29T02:42:11.410Z,3.17
2022-11-29T02:45:00.299Z,3.97
2022-11-29T02:47:45.801Z,2.90
2022-11-29T02:50:31.315Z,3.80
2022-11-29T02:53:07.312Z,3.92
2022-11-29T02:55:44.550Z,4.20
2022-11-29T02:58:20.398Z,5.97
2022-11-29T03:01:00.795Z,11.73
2022-11-29T03:03:38.198Z,6.15
2022-11-29T03:06:18.076Z,5.82
2022-11-29T03:08:55.007Z,4.07
2022-11-29T03:11:33.730Z,4.88
2022-11-29T03:14:15.622Z,4.38
2022-11-29T03:16:52.584Z,3.97
2022-11-29T03:19:42.211Z,5.18
2022-11-29T03:22:20.286Z,5.72
2022-11-29T03:24:57.259Z,6.53
2022-11-29T03:27:32.958Z,6.80
2022-11-29T03:30:05.683Z,5.93
2022-11-29T03:32:44.076Z,5.45
2022-11-29T03:35:16.390Z,4.88
2022-11-29T03:37:55.920Z,5.85
2022-11-29T03:40:31.290Z,5.85
2022-11-29T03:43:05.048Z,4.40
2022-11-29T03:45:44.167Z,4.20
2022-11-29T03:48:18.315Z,4.47
2022-11-29T03:50:52.966Z,4.28
2022-11-29T03:53:33.079Z,4.43
2022-11-29T03:56:05.389Z,4.45
2022-11-29T03:58:43.644Z,4.43
2022-11-29T04:01:49.724Z,5.20
2022-11-29T04:04:57.240Z,4.65
2022-11-29T04:07:49.157Z,6.07
2022-11-29T04:10:35.100Z,5.40
2022-11-29T04:13:51.627Z,5.05
2022-11-29T04:16:40.976Z,5.25
2022-11-29T04:19:50.887Z,4.68
2022-11-29T04:22:41.318Z,4.32
2022-11-29T04:25:41.024Z,5.78
2022-11-29T04:28:26.887Z,5.30
2022-11-29T04:31:04.834Z,6.63
2022-11-29T04:34:08.398Z,5.03
2022-11-29T04:36:55.061Z,4.75
2022-11-29T04:40:00.347Z,4.70
2022-11-29T04:42:42.335Z,4.00
2022-11-29T04:45:44.125Z,4.38
2022-11-29T04:48:31.694Z,3.83
2022-11-29T04:51:16.171Z,6.07
2022-11-29T04:53:56.816Z,4.75
2022-11-29T04:56:35.717Z,3.95
2022-11-29T04:59:14.709Z,4.47
2022-11-29T05:01:56.584Z,4.53
2022-11-29T05:04:32.995Z,5.13
2022-11-29T05:07:07.497Z,4.43
2022-11-29T05:09:51.277Z,5.03
2022-11-29T05:12:29.071Z,5.80
2022-11-29T05:15:22.907Z,6.35
2022-11-29T05:17:59.874Z,6.78
2022-11-29T05:20:43.092Z,5.60
2022-11-29T05:23:34.618Z,6.07
2022-11-29T05:26:09.807Z,5.13
2022-11-29T05:28:49.092Z,6.15
2022-11-29T05:31:37.187Z,7.57
2022-11-29T05:34:41.597Z,3.92
2022-11-29T05:37:23.247Z,4.75
2022-11-29T05:40:04.908Z,5.88
2022-11-29T05:42:49.387Z,5.75
2022-11-29T05:45:24.729Z,6.70
2022-11-29T05:48:03.189Z,5.00
2022-11-29T05:50:36.691Z,4.15
2022-11-29T05:53:22.261Z,4.78
2022-11-29T05:56:00.497Z,5.05
2022-11-29T05:58:47.641Z,4.13
2022-11-29T06:01:23.628Z,6.50
2022-11-29T06:04:00.173Z,5.40
2022-11-29T06:06:39.693Z,5.25
2022-11-29T06:09:16.228Z,7.10
2022-11-29T06:11:49.388Z,5.38
2022-11-29T06:14:36.437Z,7.18
2022-11-29T06:17:35.690Z,6.82
2022-11-29T06:20:33.104Z,6.05
2022-11-29T06:23:30.824Z,4.13
2022-11-29T06:26:13.561Z,5.78
2022-11-29T06:28:54.947Z,6.88
2022-11-29T06:31:28.949Z,5.40
2022-11-29T06:34:07.424Z,10.52
2022-11-29T06:36:44.602Z,6.10
2022-11-29T06:39:14.195Z,6.15
2022-11-29T06:41:43.320Z,6.95
2022-11-29T06:44:12.903Z,9.88
2022-11-29T06:46:47.413Z,10.38
2022-11-29T06:49:27.216Z,8.07
2022-11-29T06:52:12.241Z,6.97
2022-11-29T06:57:25.714Z,6.55
2022-11-29T07:00:11.690Z,8.13
2022-11-29T07:03:04.842Z,9.32
2022-11-29T07:05:36.387Z,10.52
2022-11-29T07:08:12.621Z,9.55
2022-11-29T07:10:43.017Z,9.80
2022-11-29T07:13:14.468Z,10.32
2022-11-29T07:15:51.631Z,8.13
2022-11-29T07:18:29.387Z,7.50
2022-11-29T07:21:08.697Z,6.93
2022-11-29T07:23:46.547Z,9.07
2022-11-29T07:26:24.925Z,11.38
2022-11-29T07:29:04.373Z,12.63
2022-11-29T07:31:45.478Z,12.23
2022-11-29T07:34:24.687Z,11.80
2022-11-29T07:37:03.665Z,11.25
2022-11-29T07:39:43.875Z,10.82
2022-11-29T07:42:21.796Z,12.13
2022-11-29T07:45:00.534Z,10.02
2022-11-29T07:47:35.574Z,10.88
2022-11-29T07:50:05.829Z,8.10
2022-11-29T07:52:34.834Z,9.27
2022-11-29T07:55:06.184Z,9.55
2022-11-29T07:57:37.035Z,8.23
2022-11-29T08:00:07.811Z,7.80
2022-11-29T08:02:40.778Z,8.75
2022-11-29T08:05:14.130Z,8.10
2022-11-29T08:07:44.799Z,8.52
2022-11-29T08:10:17.503Z,12.52
2022-11-29T08:12:50.123Z,9.65
2022-11-29T08:15:20.136Z,10.57
2022-11-29T08:17:49.440Z,7.97
2022-11-29T08:20:19.315Z,9.77
2022-11-29T08:22:55.043Z,9.18
2022-11-29T08:25:25.736Z,8.68
2022-11-29T08:27:55.223Z,7.90
2022-11-29T08:30:24.832Z,8.30
2022-11-29T08:32:54.019Z,8.00
2022-11-29T08:35:24.709Z,8.65
2022-11-29T08:37:55.183Z,7.15
2022-11-29T08:40:25.497Z,6.07
2022-11-29T08:42:58.793Z,5.60
2022-11-29T08:45:27.745Z,5.20
2022-11-29T08:47:56.664Z,5.15
2022-11-29T08:50:25.769Z,5.07
2022-11-29T08:53:11.757Z,5.90
2022-11-29T08:55:46.583Z,5.82
2022-11-29T08:58:17.285Z,5.47
2022-11-29T09:00:47.335Z,5.05
2022-11-29T09:03:34.681Z,5.03
2022-11-29T09:06:12.017Z,5.97
2022-11-29T09:08:43.608Z,6.18
2022-11-29T09:11:15.829Z,6.40
2022-11-29T09:13:46.203Z,5.90
2022-11-29T09:16:18.094Z,7.57
2022-11-29T09:18:51.808Z,6.32
2022-11-29T09:21:21.384Z,6.97
2022-11-29T09:23:50.806Z,7.78
2022-11-29T09:26:21.496Z,10.02
2022-11-29T09:28:50.492Z,10.07
2022-11-29T09:31:20.207Z,8.60
2022-11-29T09:33:49.774Z,17.17
2022-11-29T09:36:23.710Z,18.90
2022-11-29T09:38:55.609Z,9.93
2022-11-29T09:41:54.393Z,8.05
2022-11-29T09:44:31.862Z,8.20
2022-11-29T09:47:13.943Z,9.85
2022-11-29T09:49:54.423Z,10.95
2022-11-29T09:52:34.137Z,10.10
2022-11-29T09:55:16.782Z,7.22
2022-11-29T09:57:48.028Z,8.93
2022-11-29T10:00:19.962Z,8.95
2022-11-29T10:02:52.332Z,8.80
2022-11-29T10:05:25.137Z,11.13
2022-11-29T10:08:02.093Z,8.32
2022-11-29T10:10:37.731Z,7.13
2022-11-29T10:13:17.080Z,5.65
2022-11-29T10:15:48.568Z,6.43
2022-11-29T10:18:23.964Z,4.75
2022-11-29T10:20:58.519Z,5.38
2022-11-29T10:23:35.090Z,6.32
2022-11-29T10:26:08.100Z,7.28
2022-11-29T10:28:38.967Z,7.13
2022-11-29T10:31:19.134Z,7.50
2022-11-29T10:33:48.796Z,7.43
2022-11-29T10:36:26.413Z,5.93
2022-11-29T10:39:00.760Z,7.05
2022-11-29T10:41:29.794Z,5.82
2022-11-29T10:44:02.084Z,6.57
2022-11-29T10:46:33.496Z,7.28
2022-11-29T10:49:05.938Z,5.57
2022-11-29T10:51:35.906Z,5.30
2022-11-29T10:54:21.771Z,5.85
2022-11-29T10:56:51.404Z,5.18
2022-11-29T10:59:26.556Z,6.10
2022-11-29T11:01:55.970Z,5.25
2022-11-29T11:04:31.163Z,4.53
2022-11-29T11:07:03.535Z,5.65
2022-11-29T11:09:36.940Z,5.40
2022-11-29T11:12:09.039Z,5.28
2022-11-29T11:14:39.921Z,5.65
2022-11-29T11:17:26.073Z,6.18
2022-11-29T11:20:00.947Z,5.78
2022-11-29T11:22:32.942Z,5.75
2022-11-29T11:25:05.978Z,4.78
2022-11-29T11:27:37.113Z,4.72
2022-11-29T11:30:19.139Z,4.93
2022-11-29T11:33:09.457Z,5.40
2022-11-29T11:35:38.426Z,4.57
2022-11-29T11:38:15.927Z,4.13
2022-11-29T11:40:45.215Z,3.97
2022-11-29T11:43:21.871Z,3.22
2022-11-29T11:45:55.626Z,2.85
2022-11-29T11:48:24.797Z,4.57
2022-11-29T11:50:57.646Z,4.63
2022-11-29T11:53:29.081Z,5.72
2022-11-29T11:56:02.023Z,6.38
2022-11-29T11:58:32.957Z,5.78
2022-11-29T12:01:17.153Z,6.47
2022-11-29T12:03:51.993Z,4.68
2022-11-29T12:06:31.347Z,3.42
2022-11-29T12:09:05.466Z,6.05
2022-11-29T12:11:43.246Z,4.90
2022-11-29T12:14:21.364Z,5.40
2022-11-29T12:16:59.987Z,6.95
2022-11-29T12:19:36.756Z,8.32
2022-11-29T12:22:14.845Z,7.75
2022-11-29T12:24:51.723Z,4.95
2022-11-29T12:27:20.641Z,5.68
2022-11-29T12:29:49.711Z,5.65
2022-11-29T12:32:48.736Z,6.05
2022-11-29T12:35:36.688Z,5.22
2022-11-29T12:38:17.962Z,5.57
2022-11-29T12:40:57.254Z,5.47
2022-11-29T12:43:42.549Z,5.03
2022-11-29T12:46:21.018Z,4.68
2022-11-29T12:48:59.615Z,5.60
2022-11-29T12:51:38.147Z,6.00
2022-11-29T12:54:25.313Z,4.97
2022-11-29T12:57:02.383Z,4.70
2022-11-29T12:59:46.835Z,5.55
2022-11-29T13:02:32.280Z,5.82
2022-11-29T13:07:40.771Z,5.15
2022-11-29T13:10:20.585Z,7.22
2022-11-29T13:12:53.708Z,6.35
2022-11-29T13:15:25.542Z,6.63
2022-11-29T13:18:01.994Z,6.13
2022-11-29T13:20:41.739Z,7.00
2022-11-29T13:23:39.125Z,6.45
2022-11-29T13:26:14.327Z,4.70
2022-11-29T13:28:46.407Z,6.13
2022-11-29T13:31:25.970Z,6.97
2022-11-29T13:34:02.143Z,6.45
2022-11-29T13:36:44.692Z,13.38
2022-11-29T13:39:25.316Z,22.92
2022-11-29T13:42:03.834Z,13.38
2022-11-29T13:44:38.336Z,6.05
2022-11-29T13:47:10.113Z,6.07
2022-11-29T13:49:54.093Z,14.27
2022-11-29T13:52:43.332Z,8.77
2022-11-29T13:55:29.145Z,9.13
2022-11-29T13:58:20.169Z,5.80
2022-11-29T14:00:52.107Z,4.93
2022-11-29T14:03:30.328Z,4.47
2022-11-29T14:06:10.435Z,3.58
2022-11-29T14:09:17.225Z,4.60
2022-11-29T14:11:39.097Z,5.47
2022-11-29T14:14:10.719Z,4.07
2022-11-29T14:16:47.574Z,3.72
2022-11-29T14:19:26.633Z,4.45
2022-11-29T14:22:21.627Z,6.55
2022-11-29T14:25:11.874Z,5.13
2022-11-29T14:28:06.050Z,4.63
2022-11-29T14:30:48.204Z,8.90
2022-11-29T14:33:50.274Z,5.93
2022-11-29T14:36:49.975Z,4.93
2022-11-29T14:39:32.026Z,6.20
2022-11-29T14:42:17.093Z,4.80
2022-11-29T14:44:49.817Z,4.32
2022-11-29T14:47:27.094Z,4.50
2022-11-29T14:49:58.405Z,3.58
2022-11-29T14:52:32.738Z,3.58
2022-11-29T14:55:06.382Z,3.92
2022-11-29T14:58:13.874Z,4.05
2022-11-29T15:01:08.146Z,4.32
2022-11-29T15:03:47.578Z,4.05
2022-11-29T15:06:24.182Z,3.97
2022-11-29T15:08:59.359Z,4.13
2022-11-29T15:11:50.194Z,2.83
2022-11-29T15:14:30.150Z,2.63
2022-11-29T15:17:11.152Z,3.15
2022-11-29T15:20:11.184Z,2.10
2022-11-29T15:22:49.393Z,2.75
2022-11-29T15:25:21.056Z,2.95
2022-11-29T15:27:54.850Z,10.80
2022-11-29T15:30:35.111Z,12.23
2022-11-29T15:33:07.174Z,6.30
2022-11-29T15:35:37.781Z,3.80
2022-11-29T15:38:06.669Z,3.45
2022-11-29T15:40:37.289Z,4.60
2022-11-29T15:43:17.132Z,5.63
2022-11-29T15:45:49.243Z,4.30
2022-11-29T15:48:22.365Z,4.85
2022-11-29T15:51:00.673Z,3.95
2022-11-29T15:53:35.404Z,5.22
2022-11-29T15:56:10.883Z,6.47
2022-11-29T15:58:40.317Z,4.20
2022-11-29T16:01:10.067Z,5.55
2022-11-29T16:03:45.410Z,6.25
2022-11-29T16:06:24.724Z,6.25
2022-11-29T16:08:54.480Z,5.85
2022-11-29T16:11:27.816Z,4.00
2022-11-29T16:14:05.393Z,5.03
2022-11-29T16:16:35.628Z,8.60
2022-11-29T16:19:23.826Z,3.55
2022-11-29T16:22:25.791Z,1.65
2022-11-29T16:25:03.794Z,1.83
2022-11-29T16:27:34.912Z,2.10
2022-11-29T16:30:07.384Z,2.17
2022-11-29T16:32:39.144Z,1.95
2022-11-29T16:35:15.492Z,2.22
2022-11-29T16:37:46.024Z,2.10
2022-11-29T16:40:23.357Z,1.95
2022-11-29T16:43:09.345Z,1.45
2022-11-29T16:45:39.558Z,1.73
2022-11-29T16:48:30.174Z,1.33
2022-11-29T16:51:23.814Z,1.25
2022-11-29T16:53:53.751Z,1.75
2022-11-29T16:56:25.119Z,2.08
2022-11-29T16:59:25.078Z,3.15
2022-11-29T17:01:45.760Z,2.70
2022-11-29T17:04:23.783Z,3.25
2022-11-29T17:06:56.018Z,2.03
2022-11-29T17:09:27.268Z,3.08
2022-11-29T17:11:59.846Z,3.83
2022-11-29T17:14:29.883Z,5.07
2022-11-29T17:17:00.879Z,3.65
2022-11-29T17:19:30.848Z,4.25
2022-11-29T17:22:01.173Z,5.63
2022-11-29T17:24:30.069Z,3.28
2022-11-29T17:26:58.979Z,4.53
2022-11-29T17:29:27.973Z,5.45
2022-11-29T17:31:57.018Z,5.72
2022-11-29T17:34:26.031Z,9.23
2022-11-29T17:36:54.973Z,12.57
2022-11-29T17:39:25.283Z,13.20
2022-11-29T17:41:54.183Z,19.52
2022-11-29T17:44:23.075Z,30.52
2022-11-29T17:46:52.002Z,17.08
2022-11-29T17:49:20.905Z,9.95
2022-11-29T17:51:52.758Z,10.95
2022-11-29T17:54:22.320Z,6.38
2022-11-29T17:56:52.859Z,2.85
2022-11-29T17:59:21.791Z,2.35
2022-11-29T18:01:50.763Z,2.60
2022-11-29T18:04:19.774Z,4.18
2022-11-29T18:06:50.364Z,4.13
2022-11-29T18:09:20.701Z,2.65
2022-11-29T18:11:50.890Z,4.22
2022-11-29T18:14:23.931Z,4.00
2022-11-29T18:16:53.363Z,8.02
2022-11-29T18:19:23.609Z,11.27
2022-11-29T18:21:53.238Z,9.10
2022-11-29T18:24:23.033Z,9.75
2022-11-29T18:26:51.967Z,8.15
2022-11-29T18:29:23.210Z,8.88
2022-11-29T18:31:52.157Z,8.63
2022-11-29T18:34:21.108Z,9.57
2022-11-29T18:36:50.577Z,6.25
2022-11-29T18:39:23.260Z,4.70
2022-11-29T18:41:52.311Z,3.35
2022-11-29T18:44:24.356Z,2.45
2022-11-29T18:46:53.243Z,3.10
2022-11-29T18:49:22.208Z,6.72
2022-11-29T18:51:51.424Z,5.72
2022-11-29T18:54:20.379Z,8.10
2022-11-29T18:56:51.974Z,10.88
2022-11-29T18:59:23.090Z,9.15
2022-11-29T19:01:51.992Z,15.35
2022-11-29T19:04:21.803Z,11.40
2022-11-29T19:06:50.744Z,5.57
2022-11-29T19:09:21.647Z,5.85
2022-11-29T19:11:51.126Z,4.68
2022-11-29T19:14:21.170Z,3.63
2022-11-29T19:16:51.521Z,4.20
2022-11-29T19:19:20.441Z,5.53
2022-11-29T19:21:49.730Z,4.20
2022-11-29T19:24:19.620Z,3.35
2022-11-29T19:26:50.681Z,3.25
2022-11-29T19:29:20.399Z,4.93
2022-11-29T19:31:50.445Z,4.90
2022-11-29T19:34:21.083Z,5.50
2022-11-29T19:36:50.072Z,6.72
2022-11-29T19:39:19.151Z,5.32
2022-11-29T19:41:48.878Z,6.25
2022-11-29T19:44:17.870Z,4.75
2022-11-29T19:46:48.812Z,4.88
2022-11-29T19:49:18.093Z,4.28
2022-11-29T19:51:48.574Z,3.92
2022-11-29T19:54:17.532Z,4.10
2022-11-29T19:56:46.558Z,3.35
2022-11-29T19:59:15.456Z,2.92
2022-11-29T20:01:44.337Z,2.65
2022-11-29T20:04:16.755Z,4.63
2022-11-29T20:06:49.254Z,2.83
2022-11-29T20:09:18.636Z,4.07
2022-11-29T20:11:48.278Z,3.00
2022-11-29T20:14:17.559Z,3.78
2022-11-29T20:16:46.433Z,2.47
2022-11-29T20:19:17.002Z,3.15
2022-11-29T20:21:49.665Z,3.58
2022-11-29T20:24:19.444Z,3.83
2022-11-29T20:26:49.435Z,3.38
2022-11-29T20:29:19.388Z,3.05
2022-11-29T20:31:50.975Z,3.10
2022-11-29T20:34:21.203Z,3.42
2022-11-29T20:37:21.574Z,2.60
2022-11-29T20:39:55.623Z,4.57
2022-11-29T20:42:47.541Z,4.43
2022-11-29T20:45:17.641Z,8.43
2022-11-29T20:47:52.140Z,8.35
2022-11-29T20:50:23.976Z,35.55
2022-11-29T20:53:05.330Z,47.17
2022-11-29T20:55:37.806Z,36.70
2022-11-29T20:58:07.263Z,19.77
2022-11-29T21:00:36.334Z,13.23
2022-11-29T21:03:05.234Z,14.20
2022-11-29T21:05:34.135Z,10.20
2022-11-29T21:08:04.907Z,13.70
2022-11-29T21:10:34.587Z,14.63
2022-11-29T21:13:04.104Z,16.98
2022-11-29T21:15:33.744Z,15.88
2022-11-29T21:18:03.285Z,19.17
2022-11-29T21:20:32.808Z,17.65
2022-11-29T21:23:07.968Z,22.40
2022-11-29T21:25:44.403Z,24.13
2022-11-29T21:28:15.553Z,35.58
2022-11-29T21:30:45.152Z,35.00
2022-11-29T21:33:14.439Z,39.42
2022-11-29T21:35:43.427Z,39.30
2022-11-29T21:38:19.586Z,36.13
2022-11-29T21:40:48.619Z,36.72
2022-11-29T21:43:17.493Z,37.83
2022-11-29T21:45:48.577Z,34.95
2022-11-29T21:48:34.806Z,29.50
2022-11-29T21:51:04.104Z,16.52
2022-11-29T21:53:34.970Z,17.08
2022-11-29T21:56:05.512Z,16.48
2022-11-29T21:58:36.575Z,15.02
2022-11-29T22:01:11.773Z,14.40
2022-11-29T22:03:42.074Z,19.33
2022-11-29T22:06:12.785Z,18.42
2022-11-29T22:08:44.172Z,20.25
2022-11-29T22:11:15.959Z,19.40
2022-11-29T22:13:59.220Z,17.35
2022-11-29T22:16:28.515Z,12.30
2022-11-29T22:18:57.455Z,8.23
2022-11-29T22:21:26.372Z,7.25
2022-11-29T22:23:57.132Z,6.15
2022-11-29T22:26:26.012Z,5.63
2022-11-29T22:28:54.894Z,4.32
2022-11-29T22:31:23.832Z,5.95
2022-11-29T22:33:54.493Z,6.10
2022-11-29T22:36:23.894Z,8.07
2022-11-29T22:38:52.800Z,7.15
2022-11-29T22:41:23.094Z,5.93
2022-11-29T22:43:51.964Z,5.60
2022-11-29T22:46:21.850Z,5.50
2022-11-29T22:48:52.994Z,7.22
2022-11-29T22:51:24.153Z,7.32
2022-11-29T22:53:54.637Z,6.47
2022-11-29T22:56:26.560Z,5.03
2022-11-29T22:58:55.927Z,6.55
2022-11-29T23:01:26.493Z,8.63
2022-11-29T23:03:57.300Z,7.18
2022-11-29T23:06:27.352Z,8.73
2022-11-29T23:08:58.416Z,8.77
2022-11-29T23:11:30.530Z,9.48
2022-11-29T23:13:59.465Z,9.35
2022-11-29T23:16:30.970Z,8.60
2022-11-29T23:19:00.515Z,11.93
2022-11-29T23:21:31.235Z,11.52
2022-11-29T23:24:01.042Z,15.98
2022-11-29T23:26:33.986Z,12.20
2022-11-29T23:29:03.263Z,7.07
2022-11-29T23:31:32.329Z,7.03
2022-11-29T23:34:02.024Z,6.32
2022-11-29T23:36:30.981Z,5.70
2022-11-29T23:39:00.959Z,5.05
2022-11-29T23:41:31.269Z,4.72
2022-11-29T23:44:00.816Z,5.35
2022-11-29T23:46:29.647Z,5.47
2022-11-29T23:48:58.690Z,5.97
2022-11-29T23:51:27.670Z,5.03
2022-11-29T23:53:56.767Z,5.05
2022-11-29T23:56:25.747Z,5.65
2022-11-29T23:58:56.045Z,4.72
